Time;durP1;ratioP1;P1;durP2;ratioP2;P2;SDS_P1;SDS_P2;PMS_P1;PMS_P2;Temp;Humidity;BMP_temperature;BMP_pressure;BME280_temperature;BME280_humidity;BME280_pressure;Samples;Min_cycle;Max_cycle;Signal;HPM_P1;HPM_P2
2023/04/25 00:00:40;;;;;;;9.13;5.47;;;7.50;96.40;;;;;;5047812;28;20796;-70
2023/04/25 00:03:08;;;;;;;8.23;5.55;;;7.50;96.30;;;;;;5058149;28;20435;-70
2023/04/25 00:05:37;;;;;;;8.73;5.60;;;7.50;96.30;;;;;;5056806;28;20492;-69
2023/04/25 00:08:05;;;;;;;8.00;5.15;;;7.50;96.30;;;;;;5059567;28;20421;-69
2023/04/25 00:10:31;;;;;;;8.15;5.78;;;7.50;96.80;;;;;;5055813;28;20509;-69
2023/04/25 00:12:58;;;;;;;7.18;5.30;;;7.60;96.60;;;;;;5048583;28;20405;-70
2023/04/25 00:15:25;;;;;;;9.73;5.60;;;7.50;96.10;;;;;;5043764;28;20638;-69
2023/04/25 00:17:53;;;;;;;6.82;5.78;;;7.50;96.40;;;;;;5046504;28;20427;-69
2023/04/25 00:20:20;;;;;;;11.13;6.05;;;7.50;96.20;;;;;;5046121;28;20440;-69
2023/04/25 00:22:48;;;;;;;8.45;5.68;;;7.50;96.10;;;;;;5045582;28;20437;-70
2023/04/25 00:25:15;;;;;;;9.00;5.80;;;7.40;96.20;;;;;;5046746;28;20501;-69
2023/04/25 00:27:41;;;;;;;10.80;5.60;;;7.40;95.90;;;;;;5047081;28;20418;-68
2023/04/25 00:30:09;;;;;;;8.80;6.30;;;7.40;95.80;;;;;;5060428;28;20447;-71
2023/04/25 00:32:36;;;;;;;10.75;5.97;;;7.30;96.00;;;;;;5057092;28;20489;-69
2023/04/25 00:35:04;;;;;;;12.05;6.10;;;7.30;96.00;;;;;;5047704;28;20785;-70
2023/04/25 00:37:31;;;;;;;10.15;6.90;;;7.30;96.20;;;;;;5041396;28;20424;-68
2023/04/25 00:39:59;;;;;;;7.95;5.10;;;7.20;96.60;;;;;;5060305;28;20459;-69
2023/04/25 00:42:26;;;;;;;11.05;6.15;;;7.20;96.80;;;;;;5046391;28;20471;-69
2023/04/25 00:44:54;;;;;;;10.52;5.80;;;7.10;96.80;;;;;;5046399;28;20786;-69
2023/04/25 00:47:21;;;;;;;9.00;6.15;;;7.10;96.90;;;;;;5045658;28;20551;-68
2023/04/25 00:49:47;;;;;;;11.88;6.68;;;7.00;97.10;;;;;;5044967;28;20448;-68
2023/04/25 00:52:14;;;;;;;12.60;7.30;;;7.00;97.40;;;;;;5051792;28;20417;-69
2023/04/25 00:54:41;;;;;;;10.00;6.03;;;6.90;97.50;;;;;;5046576;28;20887;-68
2023/04/25 00:57:10;;;;;;;12.75;6.10;;;6.80;97.80;;;;;;5045392;28;20418;-69
2023/04/25 00:59:38;;;;;;;11.23;6.25;;;6.80;98.20;;;;;;5066103;28;20419;-68
2023/04/25 01:02:05;;;;;;;12.05;6.45;;;6.70;98.30;;;;;;5048126;28;20433;-69
2023/04/25 01:04:32;;;;;;;10.90;6.60;;;6.70;98.50;;;;;;5052485;28;20755;-68
2023/04/25 01:06:59;;;;;;;9.73;6.40;;;6.70;98.50;;;;;;5044950;28;20899;-69
2023/04/25 01:09:27;;;;;;;11.48;6.03;;;6.60;98.80;;;;;;5055855;28;20436;-68
2023/04/25 01:11:53;;;;;;;13.38;6.78;;;6.60;99.00;;;;;;5051306;28;20745;-68
2023/04/25 01:14:21;;;;;;;9.35;6.55;;;6.50;99.10;;;;;;5047973;28;20485;-68
2023/04/25 01:16:48;;;;;;;12.27;6.33;;;6.50;99.50;;;;;;5050478;28;20459;-68
2023/04/25 01:19:17;;;;;;;9.57;6.50;;;6.50;99.40;;;;;;5059856;28;20855;-69
2023/04/25 01:21:46;;;;;;;8.90;6.13;;;6.40;99.60;;;;;;5045852;28;20449;-69
2023/04/25 01:24:13;;;;;;;11.50;6.30;;;6.40;99.70;;;;;;5049885;28;20485;-69
2023/04/25 01:26:44;;;;;;;14.90;7.43;;;6.40;99.90;;;;;;5077673;23;20436;-67
2023/04/25 01:29:11;;;;;;;16.20;7.32;;;6.30;99.90;;;;;;5066488;28;20439;-67
2023/04/25 01:31:38;;;;;;;13.32;7.50;;;6.30;99.90;;;;;;5071361;28;20818;-68
2023/04/25 01:34:05;;;;;;;9.32;6.90;;;6.30;99.90;;;;;;5077981;28;20886;-68
2023/04/25 01:36:32;;;;;;;10.52;6.93;;;6.30;99.90;;;;;;5071126;28;20435;-68
2023/04/25 01:39:00;;;;;;;13.57;7.70;;;6.20;99.90;;;;;;5068454;28;20411;-69
2023/04/25 01:41:27;;;;;;;11.25;6.60;;;6.20;99.90;;;;;;5068618;28;20423;-67
2023/04/25 01:43:54;;;;;;;11.02;7.25;;;6.20;99.90;;;;;;5066857;28;20423;-67
2023/04/25 01:46:21;;;;;;;13.33;7.23;;;6.20;99.90;;;;;;5067912;28;20442;-69
2023/04/25 01:48:48;;;;;;;11.85;7.07;;;6.20;99.90;;;;;;5072818;28;20419;-68
2023/04/25 01:51:15;;;;;;;13.20;6.70;;;6.20;99.90;;;;;;5079953;28;20427;-68
2023/04/25 01:53:43;;;;;;;10.98;6.80;;;6.10;99.90;;;;;;5075692;28;20415;-68
2023/04/25 01:56:11;;;;;;;12.27;7.20;;;6.10;99.90;;;;;;5070776;28;20420;-68
2023/04/25 01:58:38;;;;;;;11.55;7.00;;;6.10;99.90;;;;;;5079393;28;20429;-67
2023/04/25 02:01:04;;;;;;;13.25;6.90;;;6.10;99.90;;;;;;5068237;28;20632;-67
2023/04/25 02:03:32;;;;;;;10.55;6.28;;;6.10;99.90;;;;;;5067719;28;20427;-66
2023/04/25 02:05:59;;;;;;;10.75;6.40;;;6.00;99.90;;;;;;5066698;28;20885;-67
2023/04/25 02:08:26;;;;;;;14.27;7.37;;;6.00;99.90;;;;;;5073391;28;20412;-67
2023/04/25 02:10:53;;;;;;;11.60;6.47;;;6.00;99.90;;;;;;5071037;28;20412;-67
2023/04/25 02:13:21;;;;;;;10.40;6.20;;;6.00;99.90;;;;;;5071237;28;20407;-67
2023/04/25 02:15:48;;;;;;;10.75;6.28;;;5.90;99.90;;;;;;5083319;28;20770;-67
2023/04/25 02:18:15;;;;;;;10.10;6.60;;;5.90;99.90;;;;;;5069830;28;20415;-67
2023/04/25 02:20:43;;;;;;;12.77;6.80;;;5.90;99.90;;;;;;5071404;28;20411;-66
2023/04/25 02:23:09;;;;;;;11.93;7.10;;;5.90;99.90;;;;;;5068857;28;20444;-67
2023/04/25 02:25:36;;;;;;;8.85;5.93;;;6.00;99.90;;;;;;5069881;28;20434;-67
2023/04/25 02:28:03;;;;;;;11.38;6.47;;;6.00;99.90;;;;;;5070888;28;20839;-67
2023/04/25 02:30:31;;;;;;;10.63;6.17;;;6.10;99.90;;;;;;5077865;28;20416;-69
2023/04/25 02:32:58;;;;;;;9.15;6.30;;;6.10;99.90;;;;;;5075658;28;20426;-69
2023/04/25 02:35:25;;;;;;;11.40;5.70;;;6.10;99.90;;;;;;5071299;28;20415;-69
2023/04/25 02:37:51;;;;;;;9.63;5.30;;;6.20;99.90;;;;;;5060515;28;20442;-68
2023/04/25 02:40:18;;;;;;;8.48;5.50;;;6.20;99.90;;;;;;5085361;28;20885;-67
2023/04/25 02:42:45;;;;;;;10.52;5.70;;;6.30;99.90;;;;;;5074986;28;20411;-67
2023/04/25 02:45:12;;;;;;;9.57;5.50;;;6.30;99.90;;;;;;5070604;28;20718;-68
2023/04/25 02:47:40;;;;;;;8.50;5.25;;;6.30;99.90;;;;;;5060180;28;20420;-67
2023/04/25 02:50:08;;;;;;;9.95;5.32;;;6.30;99.90;;;;;;5067705;28;20938;-68
2023/04/25 02:52:35;;;;;;;9.77;5.68;;;6.40;99.90;;;;;;5065688;28;20431;-67
2023/04/25 02:55:02;;;;;;;10.63;5.20;;;6.40;99.90;;;;;;5070646;28;20416;-68
2023/04/25 02:57:28;;;;;;;8.77;5.47;;;6.40;99.90;;;;;;5070389;28;20433;-67
2023/04/25 02:59:55;;;;;;;7.28;5.00;;;6.40;99.90;;;;;;5080433;28;20803;-67
2023/04/25 03:02:22;;;;;;;8.32;5.15;;;6.40;99.90;;;;;;5086916;28;20785;-67
2023/04/25 03:04:50;;;;;;;7.55;4.80;;;6.40;99.90;;;;;;5080449;28;20433;-68
2023/04/25 03:07:16;;;;;;;8.77;4.90;;;6.40;99.90;;;;;;5069550;28;20450;-69
2023/04/25 03:09:43;;;;;;;6.88;4.85;;;6.50;99.90;;;;;;5070928;28;20766;-67
2023/04/25 03:12:10;;;;;;;8.07;5.45;;;6.50;99.90;;;;;;5073435;28;20421;-67
2023/04/25 03:14:37;;;;;;;9.05;5.25;;;6.50;99.90;;;;;;5089913;28;20541;-67
2023/04/25 03:17:03;;;;;;;6.97;4.82;;;6.50;99.90;;;;;;5086544;28;20416;-66
2023/04/25 03:19:30;;;;;;;9.83;5.10;;;6.50;99.90;;;;;;5081060;28;20887;-68
2023/04/25 03:21:58;;;;;;;9.50;5.30;;;6.60;99.90;;;;;;5076137;28;20430;-67
2023/04/25 03:24:26;;;;;;;7.07;5.15;;;6.50;99.90;;;;;;5069700;28;20442;-67
2023/04/25 03:26:52;;;;;;;8.93;5.07;;;6.50;99.90;;;;;;5073891;28;20761;-68
2023/04/25 03:29:19;;;;;;;9.03;5.67;;;6.50;99.90;;;;;;5090359;28;20421;-68
2023/04/25 03:31:46;;;;;;;9.98;5.45;;;6.60;99.90;;;;;;5089852;28;20792;-68
2023/04/25 03:34:14;;;;;;;9.23;5.60;;;6.60;99.90;;;;;;5074196;28;20465;-68
2023/04/25 03:36:41;;;;;;;6.72;5.10;;;6.60;99.90;;;;;;5066692;28;20463;-68
2023/04/25 03:39:09;;;;;;;8.68;5.38;;;6.60;99.90;;;;;;5069735;28;20451;-68
2023/04/25 03:41:36;;;;;;;7.70;5.60;;;6.60;99.90;;;;;;5069950;28;20501;-68
2023/04/25 03:44:02;;;;;;;7.15;5.18;;;6.60;99.90;;;;;;5069146;28;20450;-67
2023/04/25 03:46:29;;;;;;;9.25;5.20;;;6.60;99.90;;;;;;5074740;28;20418;-68
2023/04/25 03:48:56;;;;;;;9.25;5.85;;;6.60;99.90;;;;;;5077614;28;20450;-68
2023/04/25 03:51:22;;;;;;;10.32;5.60;;;6.60;99.90;;;;;;5073356;28;20574;-68
2023/04/25 03:53:50;;;;;;;7.83;5.13;;;6.60;99.90;;;;;;5064598;28;20438;-68
2023/04/25 03:56:18;;;;;;;10.70;5.40;;;6.60;99.90;;;;;;5069527;28;20419;-66
2023/04/25 03:58:45;;;;;;;8.68;5.40;;;6.70;99.90;;;;;;5069396;28;20411;-67
2023/04/25 04:01:11;;;;;;;11.80;5.50;;;6.70;99.90;;;;;;5069609;28;20698;-67
2023/04/25 04:03:38;;;;;;;8.47;5.90;;;6.70;99.90;;;;;;5081858;28;20935;-68
2023/04/25 04:06:06;;;;;;;8.65;5.30;;;6.70;99.90;;;;;;5065567;28;20442;-67
2023/04/25 04:08:33;;;;;;;9.27;5.20;;;6.70;99.90;;;;;;5061545;28;20441;-68
2023/04/25 04:11:00;;;;;;;8.43;5.63;;;6.70;99.90;;;;;;5063391;28;20438;-67
2023/04/25 04:13:29;;;;;;;9.05;5.43;;;6.70;99.90;;;;;;5068967;28;20412;-68
2023/04/25 04:15:57;;;;;;;8.93;5.80;;;6.70;99.90;;;;;;5082502;28;20499;-67
2023/04/25 04:18:23;;;;;;;8.00;5.75;;;6.70;99.90;;;;;;5082702;28;20421;-67
2023/04/25 04:20:50;;;;;;;9.63;5.97;;;6.70;99.90;;;;;;5067798;28;20431;-68
2023/04/25 04:23:17;;;;;;;10.07;5.80;;;6.70;99.90;;;;;;5069623;28;20984;-66
2023/04/25 04:25:44;;;;;;;8.60;5.93;;;6.70;99.90;;;;;;5069072;28;20508;-66
2023/04/25 04:28:11;;;;;;;10.65;5.85;;;6.80;99.90;;;;;;5068715;28;20422;-68
2023/04/25 04:30:41;;;;;;;9.25;6.20;;;6.80;99.90;;;;;;5069023;28;20427;-67
2023/04/25 04:33:08;;;;;;;9.23;6.30;;;6.80;99.90;;;;;;5067443;28;20760;-68
2023/04/25 04:35:35;;;;;;;9.88;6.07;;;6.80;99.90;;;;;;5067714;28;20896;-66
2023/04/25 04:38:01;;;;;;;9.87;5.40;;;6.80;99.90;;;;;;5071179;28;20684;-69
2023/04/25 04:40:30;;;;;;;8.57;5.22;;;6.80;99.90;;;;;;5079834;28;20755;-67
2023/04/25 04:42:57;;;;;;;10.00;6.10;;;6.90;99.90;;;;;;5068161;28;20455;-67
2023/04/25 04:45:24;;;;;;;10.93;6.05;;;6.90;99.90;;;;;;5078922;28;20453;-67
2023/04/25 04:47:52;;;;;;;13.00;6.00;;;6.90;99.90;;;;;;5075107;28;20419;-67
2023/04/25 04:50:19;;;;;;;10.90;6.40;;;7.00;99.90;;;;;;5074593;28;20437;-66
2023/04/25 04:52:46;;;;;;;10.20;6.20;;;6.90;99.90;;;;;;5075672;28;20418;-66
2023/04/25 04:55:13;;;;;;;10.43;6.10;;;6.90;99.90;;;;;;5088809;28;20421;-67
2023/04/25 04:57:40;;;;;;;8.50;6.10;;;6.90;99.90;;;;;;5073113;28;20417;-66
2023/04/25 05:00:10;;;;;;;10.52;6.20;;;6.90;99.90;;;;;;5077593;28;20411;-66
2023/04/25 05:02:38;;;;;;;6.97;6.05;;;6.90;99.90;;;;;;5073280;28;20421;-66
2023/04/25 05:05:06;;;;;;;7.78;5.90;;;7.00;99.90;;;;;;5072627;28;20467;-67
2023/04/25 05:07:33;;;;;;;7.80;5.60;;;7.00;99.90;;;;;;5074302;28;20421;-68
2023/04/25 05:10:00;;;;;;;14.73;6.57;;;7.00;99.90;;;;;;5076132;28;20415;-67
2023/04/25 05:12:27;;;;;;;11.75;8.07;;;7.00;99.90;;;;;;5073566;28;20435;-67
2023/04/25 05:14:53;;;;;;;14.50;6.90;;;7.00;99.90;;;;;;5073616;28;20423;-67
2023/04/25 05:17:20;;;;;;;9.00;6.22;;;7.10;99.90;;;;;;5055432;28;20424;-67
2023/04/25 05:19:47;;;;;;;11.93;6.25;;;7.10;99.90;;;;;;5063881;28;20411;-68
2023/04/25 05:22:15;;;;;;;11.27;6.00;;;7.10;99.90;;;;;;5063362;28;20435;-70
2023/04/25 05:24:42;;;;;;;12.50;7.38;;;7.10;99.90;;;;;;5068299;28;20484;-70
2023/04/25 05:27:09;;;;;;;12.20;7.45;;;7.10;99.90;;;;;;5073082;28;20413;-68
2023/04/25 05:29:36;;;;;;;10.18;6.35;;;7.00;99.90;;;;;;5068375;28;20431;-68
2023/04/25 05:32:03;;;;;;;9.60;6.10;;;7.10;99.90;;;;;;5074185;28;20427;-67
2023/04/25 05:34:29;;;;;;;11.30;6.40;;;7.20;99.90;;;;;;5072080;28;20433;-69
2023/04/25 05:36:56;;;;;;;10.33;6.00;;;7.20;99.90;;;;;;5068449;28;20458;-66
2023/04/25 05:39:24;;;;;;;10.95;5.88;;;7.20;99.60;;;;;;5068078;28;20423;-67
2023/04/25 05:41:51;;;;;;;9.88;6.00;;;7.20;99.70;;;;;;5069314;28;20419;-69
2023/04/25 05:44:18;;;;;;;10.43;6.15;;;7.20;99.50;;;;;;5083799;28;20882;-67
2023/04/25 05:46:44;;;;;;;9.73;6.30;;;7.20;99.30;;;;;;5069622;28;20448;-67
2023/04/25 05:49:11;;;;;;;10.90;5.80;;;7.20;99.50;;;;;;5060737;28;20427;-67
2023/04/25 05:51:38;;;;;;;13.00;6.88;;;7.10;99.50;;;;;;5074157;28;20416;-69
2023/04/25 05:54:05;;;;;;;13.32;6.53;;;7.10;99.50;;;;;;5072127;28;20408;-68
2023/04/25 05:56:33;;;;;;;10.03;6.30;;;7.10;99.50;;;;;;5080165;28;20649;-67
2023/04/25 05:59:00;;;;;;;13.10;6.18;;;7.20;99.40;;;;;;5090560;28;20457;-66
2023/04/25 06:01:26;;;;;;;12.98;6.53;;;7.20;99.70;;;;;;5064391;28;20927;-67
2023/04/25 06:03:53;;;;;;;10.50;5.77;;;7.30;99.40;;;;;;5062499;28;20495;-66
2023/04/25 06:06:20;;;;;;;10.38;5.90;;;7.40;99.10;;;;;;5080475;28;20418;-66
2023/04/25 06:08:47;;;;;;;12.40;7.10;;;7.50;98.70;;;;;;5091922;28;20444;-66
2023/04/25 06:11:13;;;;;;;13.60;5.80;;;7.50;98.40;;;;;;5083221;28;20426;-67
2023/04/25 06:13:42;;;;;;;14.77;6.37;;;7.50;98.50;;;;;;5085055;28;20461;-67
2023/04/25 06:16:11;;;;;;;12.98;5.90;;;7.70;98.30;;;;;;5071420;28;20419;-67
2023/04/25 06:18:38;;;;;;;14.52;6.00;;;7.80;97.90;;;;;;5071410;28;20456;-67
2023/04/25 06:21:05;;;;;;;8.82;5.90;;;7.90;96.40;;;;;;5080523;28;20794;-67
2023/04/25 06:23:32;;;;;;;9.20;5.80;;;8.00;96.60;;;;;;5074460;28;20473;-67
2023/04/25 06:25:59;;;;;;;8.18;5.40;;;8.10;96.20;;;;;;5080892;28;20458;-67
2023/04/25 06:28:25;;;;;;;9.48;5.40;;;8.30;95.40;;;;;;5074233;28;20467;-68
2023/04/25 06:30:53;;;;;;;10.40;6.10;;;8.40;94.50;;;;;;5068224;28;20522;-67
2023/04/25 06:33:21;;;;;;;9.77;6.00;;;8.40;94.10;;;;;;5068524;28;20423;-68
2023/04/25 06:35:47;;;;;;;10.43;5.28;;;8.50;93.60;;;;;;5070666;28;20909;-67
2023/04/25 06:38:14;;;;;;;10.13;5.40;;;8.40;92.50;;;;;;5074731;28;20425;-68
2023/04/25 06:40:41;;;;;;;10.93;5.65;;;8.40;93.80;;;;;;5091391;28;20414;-68
2023/04/25 06:43:08;;;;;;;9.93;5.70;;;8.40;94.00;;;;;;5076517;28;20428;-67
2023/04/25 06:45:35;;;;;;;10.25;6.05;;;8.60;93.80;;;;;;5070496;28;20434;-66
2023/04/25 06:48:03;;;;;;;12.27;6.07;;;8.70;93.50;;;;;;5076426;28;20444;-68
2023/04/25 06:50:29;;;;;;;8.70;5.68;;;8.70;92.50;;;;;;5078573;28;20422;-68
2023/04/25 06:52:56;;;;;;;12.63;6.10;;;8.70;93.00;;;;;;5071298;28;20412;-66
2023/04/25 06:55:23;;;;;;;7.13;5.30;;;8.70;93.00;;;;;;5081941;28;20410;-67
2023/04/25 06:57:49;;;;;;;10.87;6.07;;;8.70;93.60;;;;;;5067307;28;20795;-69
2023/04/25 07:00:17;;;;;;;9.70;5.63;;;8.90;93.10;;;;;;5069267;28;20428;-66
2023/04/25 07:02:44;;;;;;;11.13;5.57;;;9.00;91.40;;;;;;5069633;28;20489;-66
2023/04/25 07:05:12;;;;;;;14.07;5.82;;;9.10;91.70;;;;;;5070091;28;20467;-67
2023/04/25 07:07:39;;;;;;;12.45;5.65;;;9.20;91.70;;;;;;5076922;28;20424;-66
2023/04/25 07:10:06;;;;;;;10.32;6.10;;;9.50;91.30;;;;;;5076773;28;20833;-67
2023/04/25 07:12:33;;;;;;;8.27;5.30;;;9.70;88.00;;;;;;5067272;28;20508;-68
2023/04/25 07:15:05;;;;;;;12.40;5.50;;;9.70;85.80;;;;;;5067430;28;20424;-67
2023/04/25 07:17:32;;;;;;;11.55;5.90;;;9.60;85.20;;;;;;5064870;28;20484;-67
2023/04/25 07:19:59;;;;;;;10.23;5.17;;;9.50;87.90;;;;;;5083759;28;20410;-67
2023/04/25 07:22:27;;;;;;;10.45;6.00;;;9.50;87.90;;;;;;5069865;28;20418;-66
2023/04/25 07:24:54;;;;;;;10.73;5.60;;;9.60;87.90;;;;;;5069301;28;20516;-67
2023/04/25 07:27:21;;;;;;;10.63;5.30;;;9.80;86.30;;;;;;5069522;28;20431;-67
2023/04/25 07:29:47;;;;;;;8.50;4.50;;;9.90;87.00;;;;;;5069224;28;20904;-67
2023/04/25 07:32:14;;;;;;;6.50;3.93;;;10.20;85.50;;;;;;5069783;28;20929;-68
2023/04/25 07:34:41;;;;;;;9.02;4.32;;;10.40;83.60;;;;;;5071212;28;20415;-68
2023/04/25 07:37:08;;;;;;;12.75;5.18;;;10.50;80.90;;;;;;5081206;28;20420;-66
2023/04/25 07:39:36;;;;;;;10.80;4.70;;;10.70;80.70;;;;;;5069820;28;20786;-66
2023/04/25 07:42:04;;;;;;;11.88;4.63;;;10.60;78.50;;;;;;5067200;28;20451;-67
2023/04/25 07:44:31;;;;;;;8.97;4.83;;;10.50;80.60;;;;;;5068065;28;20949;-67
2023/04/25 07:46:57;;;;;;;8.82;4.60;;;10.70;79.50;;;;;;5069390;28;20570;-67
2023/04/25 07:49:24;;;;;;;28.33;6.32;;;10.90;76.30;;;;;;5069461;28;20527;-67
2023/04/25 07:51:51;;;;;;;20.50;5.47;;;10.90;75.50;;;;;;5069706;28;20419;-67
2023/04/25 07:54:18;;;;;;;13.43;5.40;;;10.90;73.90;;;;;;5071324;28;20945;-67
2023/04/25 07:56:46;;;;;;;7.90;4.22;;;10.90;73.80;;;;;;5073115;28;20912;-67
2023/04/25 07:59:13;;;;;;;9.68;4.68;;;11.00;74.50;;;;;;5073121;28;20426;-67
2023/04/25 08:01:40;;;;;;;7.53;5.47;;;11.00;74.20;;;;;;5068523;28;20432;-68
2023/04/25 08:04:06;;;;;;;7.60;4.50;;;11.00;72.30;;;;;;5082444;28;20667;-67
2023/04/25 08:06:33;;;;;;;9.35;5.47;;;11.00;73.50;;;;;;5079444;28;20445;-67
2023/04/25 08:09:00;;;;;;;8.20;5.00;;;11.10;71.50;;;;;;5071145;28;20909;-67
2023/04/25 08:11:27;;;;;;;7.60;4.68;;;11.00;72.20;;;;;;5079744;28;20916;-67
2023/04/25 08:13:55;;;;;;;9.77;4.90;;;10.90;71.10;;;;;;5072074;28;20442;-67
2023/04/25 08:16:22;;;;;;;9.52;4.60;;;10.80;73.00;;;;;;5074442;28;20435;-67
2023/04/25 08:18:49;;;;;;;8.63;4.80;;;10.90;73.20;;;;;;5067195;28;20427;-66
2023/04/25 08:21:16;;;;;;;5.85;4.32;;;11.10;73.90;;;;;;5069313;28;20411;-67
2023/04/25 08:23:42;;;;;;;6.88;3.97;;;11.30;72.40;;;;;;5068232;28;20916;-66
2023/04/25 08:26:10;;;;;;;9.27;4.32;;;11.50;71.40;;;;;;5068203;28;20426;-66
2023/04/25 08:28:36;;;;;;;9.02;4.10;;;11.70;69.60;;;;;;5103496;22;20442;-70
2023/04/25 08:31:05;;;;;;;7.95;4.10;;;11.80;66.00;;;;;;5084011;28;20512;-70
2023/04/25 08:33:32;;;;;;;6.40;3.60;;;11.90;66.30;;;;;;5077275;28;20410;-70
2023/04/25 08:35:59;;;;;;;7.15;3.90;;;12.00;63.20;;;;;;5084511;28;20418;-70
2023/04/25 08:38:26;;;;;;;9.40;3.90;;;11.80;63.40;;;;;;5103954;28;20409;-70
2023/04/25 08:40:52;;;;;;;8.07;3.15;;;11.80;65.00;;;;;;5104116;28;20416;-70
2023/04/25 08:43:21;;;;;;;6.63;2.87;;;11.90;62.10;;;;;;5089702;28;20973;-70
2023/04/25 08:45:48;;;;;;;7.35;2.83;;;12.00;61.80;;;;;;5083254;28;20434;-70
2023/04/25 08:48:18;;;;;;;8.27;3.30;;;12.10;62.60;;;;;;5090522;28;20496;-70
2023/04/25 08:50:50;;;;;;;8.40;3.97;;;12.20;61.30;;;;;;5096000;28;20430;-69
2023/04/25 08:53:19;;;;;;;6.18;2.70;;;12.20;60.10;;;;;;5076789;28;20432;-70
2023/04/25 08:55:47;;;;;;;8.30;3.43;;;12.30;60.20;;;;;;5082214;28;21005;-70
2023/04/25 08:58:14;;;;;;;6.20;2.53;;;12.20;60.30;;;;;;5099651;28;20902;-70
2023/04/25 09:00:41;;;;;;;6.05;2.92;;;12.30;58.40;;;;;;5086223;28;20426;-71
2023/04/25 09:03:08;;;;;;;7.50;3.30;;;12.20;54.50;;;;;;5079854;28;20415;-68
2023/04/25 09:05:37;;;;;;;6.82;2.75;;;12.10;57.10;;;;;;5082379;28;20522;-71
2023/04/25 09:08:04;;;;;;;7.40;2.75;;;12.10;56.30;;;;;;5090581;28;21045;-71
2023/04/25 09:10:30;;;;;;;7.10;2.50;;;11.90;58.10;;;;;;5074639;28;20440;-71
2023/04/25 09:13:05;;;;;;;7.18;2.60;;;11.80;57.40;;;;;;5094019;28;20419;-71
2023/04/25 09:15:32;;;;;;;7.05;2.80;;;11.70;59.00;;;;;;5077850;28;20518;-69
2023/04/25 09:18:00;;;;;;;7.07;3.00;;;11.60;59.00;;;;;;5073279;28;20435;-69
2023/04/25 09:20:26;;;;;;;7.50;3.10;;;11.50;58.40;;;;;;5100192;28;20408;-69
2023/04/25 09:23:05;;;;;;;7.32;3.30;;;11.40;59.30;;;;;;5084849;28;20537;-69
2023/04/25 09:25:36;;;;;;;7.40;3.10;;;11.30;60.80;;;;;;5081354;28;20434;-69
2023/04/25 09:28:06;;;;;;;5.00;2.78;;;11.20;60.90;;;;;;5096401;28;20440;-69
2023/04/25 09:30:34;;;;;;;7.03;2.97;;;11.20;59.10;;;;;;5075311;28;20869;-69
2023/04/25 09:33:06;;;;;;;6.75;2.90;;;11.20;60.80;;;;;;5083219;28;20929;-69
2023/04/25 09:35:38;;;;;;;5.95;2.75;;;11.30;61.40;;;;;;5093978;28;20437;-71
2023/04/25 09:38:11;;;;;;;5.50;2.90;;;11.40;60.40;;;;;;5069802;28;20458;-69
2023/04/25 09:40:40;;;;;;;6.30;2.90;;;11.60;59.30;;;;;;5088389;28;20493;-71
2023/04/25 09:43:11;;;;;;;5.70;2.67;;;11.60;56.60;;;;;;5088219;28;20474;-69
2023/04/25 09:45:45;;;;;;;6.60;2.50;;;11.60;56.10;;;;;;5083892;28;20441;-69
2023/04/25 09:48:13;;;;;;;6.50;2.53;;;11.60;53.10;;;;;;5101881;28;20416;-69
2023/04/25 09:50:40;;;;;;;5.10;2.50;;;11.40;52.10;;;;;;5096958;28;20421;-71
2023/04/25 09:53:08;;;;;;;7.23;2.90;;;11.00;53.40;;;;;;5066025;28;20519;-71
2023/04/25 09:55:36;;;;;;;6.97;3.17;;;10.80;55.70;;;;;;5078385;28;20885;-71
2023/04/25 09:58:06;;;;;;;4.57;2.70;;;10.80;58.60;;;;;;5100108;28;20559;-71
2023/04/25 10:00:34;;;;;;;7.07;3.08;;;11.00;57.90;;;;;;5080043;28;20407;-68
2023/04/25 10:03:04;;;;;;;6.80;2.80;;;11.30;57.20;;;;;;5074009;28;21043;-69
2023/04/25 10:05:33;;;;;;;7.43;2.50;;;11.50;57.50;;;;;;5097604;28;20789;-72
2023/04/25 10:08:02;;;;;;;4.03;2.70;;;11.60;56.50;;;;;;5102502;28;20416;-69
2023/04/25 10:10:35;;;;;;;4.18;2.60;;;11.50;55.20;;;;;;5085941;28;20414;-69
2023/04/25 10:13:04;;;;;;;7.20;3.10;;;11.30;55.30;;;;;;5078528;28;20429;-69
2023/04/25 10:15:33;;;;;;;5.57;2.60;;;11.20;56.60;;;;;;5070300;28;20546;-70
2023/04/25 10:18:00;;;;;;;5.95;3.20;;;10.90;58.90;;;;;;5081537;28;20420;-69
2023/04/25 10:20:27;;;;;;;7.43;2.57;;;10.60;62.10;;;;;;5096609;28;20410;-70
2023/04/25 10:22:56;;;;;;;7.47;2.97;;;10.50;63.10;;;;;;5092822;28;20412;-70
2023/04/25 10:25:24;;;;;;;6.68;2.70;;;10.50;61.90;;;;;;5101159;28;20443;-71
2023/04/25 10:27:53;;;;;;;4.53;2.78;;;10.50;62.10;;;;;;5015472;28;1732322;-71
2023/04/25 10:30:20;;;;;;;6.28;2.60;;;10.60;62.00;;;;;;5090880;28;20412;-69
2023/04/25 10:32:49;;;;;;;6.13;2.50;;;10.80;61.30;;;;;;5097546;28;20413;-71
2023/04/25 10:35:17;;;;;;;5.55;2.50;;;11.00;56.10;;;;;;5085420;28;20520;-71
2023/04/25 10:37:58;;;;;;;5.45;2.50;;;11.00;56.40;;;;;;5087693;28;20456;-69
2023/04/25 10:40:25;;;;;;;6.82;2.67;;;11.00;57.40;;;;;;5082834;28;20777;-71
2023/04/25 10:42:54;;;;;;;5.97;2.53;;;11.00;57.60;;;;;;5084610;28;20509;-69
2023/04/25 10:45:21;;;;;;;4.68;2.22;;;11.10;58.90;;;;;;5095645;28;20870;-68
2023/04/25 10:47:48;;;;;;;4.43;2.60;;;11.60;54.00;;;;;;5086940;28;20439;-69
2023/04/25 10:50:16;;;;;;;4.40;2.50;;;12.00;51.50;;;;;;5078270;28;20863;-71
2023/04/25 10:52:43;;;;;;;5.88;1.98;;;12.40;50.40;;;;;;5099946;28;20441;-69
2023/04/25 10:55:10;;;;;;;5.82;2.35;;;12.30;48.40;;;;;;5085210;28;20426;-70
2023/04/25 10:57:41;;;;;;;6.10;2.42;;;12.10;49.50;;;;;;5080678;28;20499;-69
2023/04/25 11:00:13;;;;;;;9.57;3.05;;;11.80;52.10;;;;;;5089158;28;21041;-69
2023/04/25 11:02:46;;;;;;;6.68;2.30;;;11.60;53.00;;;;;;5086464;28;20448;-70
2023/04/25 11:05:22;;;;;;;4.40;2.43;;;11.40;51.70;;;;;;5099182;28;20418;-70
2023/04/25 11:07:52;;;;;;;4.75;2.60;;;11.30;53.10;;;;;;5105564;28;20424;-70
2023/04/25 11:10:19;;;;;;;6.97;2.55;;;11.10;54.00;;;;;;5093470;28;20487;-70
2023/04/25 11:12:47;;;;;;;6.30;2.70;;;11.00;55.30;;;;;;5072756;28;20419;-70
2023/04/25 11:15:15;;;;;;;3.70;2.30;;;11.00;56.20;;;;;;5096159;28;20420;-70
2023/04/25 11:17:43;;;;;;;4.88;2.08;;;11.00;56.70;;;;;;5105700;28;20498;-69
2023/04/25 11:20:11;;;;;;;6.07;2.33;;;10.80;56.30;;;;;;5105867;28;20737;-70
2023/04/25 11:22:40;;;;;;;5.32;2.70;;;10.80;55.70;;;;;;5105379;28;20819;-69
2023/04/25 11:25:08;;;;;;;4.63;2.10;;;10.90;54.80;;;;;;5079850;28;20452;-69
2023/04/25 11:27:35;;;;;;;5.22;1.83;;;11.00;52.30;;;;;;5086075;28;20438;-69
2023/04/25 11:30:11;;;;;;;3.93;1.83;;;11.10;51.70;;;;;;5085168;28;20434;-69
2023/04/25 11:32:40;;;;;;;5.03;2.00;;;11.20;50.30;;;;;;5085967;28;20414;-69
2023/04/25 11:35:08;;;;;;;4.22;1.90;;;11.40;50.90;;;;;;5085603;28;20599;-69
2023/04/25 11:37:34;;;;;;;5.57;2.10;;;11.60;52.30;;;;;;5081290;28;20437;-69
2023/04/25 11:40:01;;;;;;;3.35;1.80;;;11.90;49.70;;;;;;5076733;28;20421;-69
2023/04/25 11:42:28;;;;;;;4.60;1.92;;;12.20;50.00;;;;;;5072302;28;20737;-69
2023/04/25 11:44:55;;;;;;;4.32;2.03;;;12.50;49.60;;;;;;5084204;28;20792;-69
2023/04/25 11:47:29;;;;;;;3.40;1.77;;;12.80;47.60;;;;;;5085570;28;20434;-70
2023/04/25 11:49:59;;;;;;;4.95;2.10;;;13.10;47.60;;;;;;5086965;28;20432;-70
2023/04/25 11:52:25;;;;;;;3.40;1.80;;;13.60;49.00;;;;;;5104386;28;20431;-70
2023/04/25 11:54:52;;;;;;;3.67;1.70;;;14.20;46.70;;;;;;5082250;28;20412;-70
2023/04/25 11:57:20;;;;;;;3.77;1.80;;;14.20;44.10;;;;;;5092990;28;20489;-70
2023/04/25 11:59:47;;;;;;;4.05;1.80;;;14.00;43.70;;;;;;5084674;28;20456;-70
2023/04/25 12:02:26;;;;;;;4.05;1.73;;;14.20;44.20;;;;;;5084525;28;20577;-70
2023/04/25 12:04:53;;;;;;;4.10;1.58;;;14.40;41.90;;;;;;5088768;28;20420;-69
2023/04/25 12:07:22;;;;;;;3.42;1.70;;;14.40;39.50;;;;;;5104826;28;20517;-70
2023/04/25 12:09:53;;;;;;;3.53;1.60;;;14.60;40.80;;;;;;5077862;28;20497;-70
2023/04/25 12:12:19;;;;;;;3.72;1.60;;;14.50;39.00;;;;;;5082771;28;20670;-70
2023/04/25 12:14:48;;;;;;;3.13;1.50;;;14.60;40.10;;;;;;5096225;28;20430;-71
2023/04/25 12:17:15;;;;;;;2.88;1.70;;;14.80;37.00;;;;;;5069115;28;20762;-70
2023/04/25 12:19:44;;;;;;;2.88;1.40;;;14.80;37.50;;;;;;5078073;28;20441;-70
2023/04/25 12:22:22;;;;;;;4.90;1.40;;;14.90;36.60;;;;;;5102257;28;20423;-70
2023/04/25 12:24:49;;;;;;;3.00;1.40;;;14.80;35.70;;;;;;5083098;28;20431;-70
2023/04/25 12:27:19;;;;;;;2.33;1.48;;;14.70;34.90;;;;;;5091200;28;21198;-70
2023/04/25 12:29:52;;;;;;;3.08;1.30;;;15.00;35.40;;;;;;5104924;28;20435;-70
2023/04/25 12:32:19;;;;;;;4.03;1.40;;;15.70;34.50;;;;;;5105194;28;20408;-70
2023/04/25 12:34:46;;;;;;;4.85;1.83;;;15.90;35.00;;;;;;5104879;28;20412;-70
2023/04/25 12:37:13;;;;;;;3.42;1.40;;;16.00;35.60;;;;;;5098966;28;20876;-70
2023/04/25 12:39:41;;;;;;;4.68;2.13;;;16.10;35.70;;;;;;5084489;28;20447;-69
2023/04/25 12:42:11;;;;;;;3.63;1.60;;;16.00;35.30;;;;;;5076243;28;20422;-69
2023/04/25 12:44:38;;;;;;;3.60;1.90;;;15.70;36.60;;;;;;5102012;28;21165;-70
2023/04/25 12:47:05;;;;;;;2.47;1.63;;;15.40;36.40;;;;;;5105186;28;20772;-70
2023/04/25 12:49:31;;;;;;;2.77;1.60;;;15.10;37.10;;;;;;5102095;28;20565;-71
2023/04/25 12:51:58;;;;;;;4.40;2.00;;;14.70;38.30;;;;;;5090902;28;20508;-69